Time;durP1;ratioP1;P1;durP2;ratioP2;P2;SDS_P1;SDS_P2;PMS_P1;PMS_P2;Temp;Humidity;BMP_temperature;BMP_pressure;BME280_temperature;BME280_humidity;BME280_pressure;Samples;Min_cycle;Max_cycle;Signal;HPM_P1;HPM_P2
2023/03/21 00:00:30;;;;;;;4.45;2.40;;;;;;;18.84;53.58;99535.44;5095148;28;20028;-73
2023/03/21 00:02:55;;;;;;;3.50;1.92;;;;;;;18.82;53.66;99538.16;5094907;28;20022;-73
2023/03/21 00:05:21;;;;;;;5.00;2.70;;;;;;;18.81;53.67;99538.22;5094947;28;20020;-73
2023/03/21 00:07:46;;;;;;;4.57;2.40;;;;;;;18.81;53.65;99532.94;5094702;28;20030;-72
2023/03/21 00:10:12;;;;;;;3.63;1.85;;;;;;;18.78;53.51;99532.16;5095117;28;20017;-73
2023/03/21 00:12:38;;;;;;;4.18;2.40;;;;;;;18.78;53.78;99526.88;5114097;28;20043;-73
2023/03/21 00:15:08;;;;;;;4.00;1.80;;;;;;;18.77;53.64;99530.47;5115338;28;20075;-73
2023/03/21 00:17:35;;;;;;;4.70;2.45;;;;;;;18.76;53.89;99523.47;5114842;28;20028;-73
2023/03/21 00:20:05;;;;;;;4.40;2.40;;;;;;;18.75;53.78;99523.53;5115251;28;20059;-72
2023/03/21 00:22:33;;;;;;;4.50;2.53;;;;;;;18.73;53.57;99518.31;5115149;28;20024;-73
2023/03/21 00:24:59;;;;;;;4.18;2.30;;;;;;;18.70;53.83;99518.47;5115091;28;20227;-73
2023/03/21 00:27:25;;;;;;;5.05;2.10;;;;;;;18.69;53.47;99522.06;5114929;28;20593;-72
2023/03/21 00:29:50;;;;;;;5.03;2.17;;;;;;;18.69;53.67;99515.94;5115174;28;20028;-73
2023/03/21 00:32:17;;;;;;;4.15;2.22;;;;;;;18.68;53.64;99512.41;5114833;28;20043;-73
2023/03/21 00:34:43;;;;;;;5.57;2.42;;;;;;;18.67;53.68;99512.50;5114743;28;20633;-73
2023/03/21 00:37:10;;;;;;;4.13;2.58;;;;;;;18.65;53.54;99515.22;5114383;28;20049;-73
2023/03/21 00:39:36;;;;;;;4.30;2.13;;;;;;;18.65;53.51;99510.78;5114975;28;20027;-73
2023/03/21 00:42:02;;;;;;;4.35;2.30;;;;;;;18.64;53.40;99513.50;5114955;28;20498;-73
2023/03/21 00:44:28;;;;;;;5.15;2.50;;;;;;;18.64;53.79;99511.72;5114525;28;20031;-73
2023/03/21 00:46:53;;;;;;;4.95;2.42;;;;;;;18.65;53.45;99515.22;5114219;28;20042;-72
2023/03/21 00:49:19;;;;;;;4.47;2.35;;;;;;;18.63;53.67;99514.44;5114743;28;20103;-72
2023/03/21 00:51:49;;;;;;;4.72;2.63;;;;;;;18.62;53.47;99515.38;5114513;28;20388;-73
2023/03/21 00:54:15;;;;;;;4.90;2.40;;;;;;;18.60;53.78;99514.59;5114424;28;20043;-73
2023/03/21 00:56:41;;;;;;;4.85;2.38;;;;;;;18.59;53.66;99513.75;5107740;28;20024;-73
2023/03/21 00:59:06;;;;;;;4.80;2.22;;;;;;;18.59;53.50;99520.81;5094143;28;20024;-73
2023/03/21 01:01:33;;;;;;;4.82;2.38;;;;;;;18.60;53.49;99522.53;5093804;28;20034;-73
2023/03/21 01:04:04;;;;;;;3.00;1.73;;;;;;;18.59;53.51;99526.13;5093904;28;20104;-73
2023/03/21 01:06:31;;;;;;;4.70;2.55;;;;;;;18.58;53.61;99519.09;5093817;28;20028;-74
2023/03/21 01:08:57;;;;;;;3.75;1.95;;;;;;;18.58;53.83;99521.72;5094050;28;20020;-73
2023/03/21 01:11:25;;;;;;;4.93;2.40;;;;;;;18.56;53.70;99505.97;5102386;28;20092;-73
2023/03/21 01:13:52;;;;;;;4.20;2.20;;;;;;;18.56;53.58;99515.69;5113999;28;20024;-73
2023/03/21 01:16:17;;;;;;;3.55;1.90;;;;;;;18.55;53.62;99517.44;5112407;28;20058;-72
2023/03/21 01:18:43;;;;;;;3.75;2.10;;;;;;;18.56;53.87;99518.31;5113970;28;20047;-73
2023/03/21 01:21:13;;;;;;;3.75;2.10;;;;;;;18.55;53.60;99516.63;5114105;28;20107;-73
2023/03/21 01:23:41;;;;;;;3.58;2.10;;;;;;;18.52;53.95;99510.56;5114037;28;20039;-73
2023/03/21 01:26:08;;;;;;;3.97;1.90;;;;;;;18.51;53.77;99514.13;5113847;28;20035;-73
2023/03/21 01:28:35;;;;;;;3.90;1.92;;;;;;;18.52;54.02;99510.56;5112597;28;20107;-73
2023/03/21 01:31:03;;;;;;;3.22;1.85;;;;;;;18.52;53.75;99510.56;5113535;28;20046;-73
2023/03/21 01:33:30;;;;;;;4.07;2.20;;;;;;;18.56;53.91;99507.75;5112364;28;20506;-73
2023/03/21 01:35:55;;;;;;;4.35;2.25;;;;;;;18.58;53.96;99492.66;5113660;28;20478;-72
2023/03/21 01:38:21;;;;;;;4.13;2.30;;;;;;;18.60;53.90;99493.47;5113714;28;20033;-73
2023/03/21 01:40:47;;;;;;;4.35;2.20;;;;;;;18.59;53.85;99489.94;5113666;28;20155;-72
2023/03/21 01:43:21;;;;;;;3.95;2.00;;;;;;;18.64;53.49;99492.34;5113544;28;20032;-73
2023/03/21 01:45:59;;;;;;;3.83;1.98;;;;;;;18.64;53.53;99482.66;5112885;28;20088;-73
2023/03/21 01:48:27;;;;;;;3.17;1.95;;;;;;;18.62;53.83;99478.38;5113173;28;20031;-73
2023/03/21 01:50:54;;;;;;;3.30;1.67;;;;;;;18.62;53.63;99483.66;5112941;28;20047;-73
2023/03/21 01:53:27;;;;;;;3.30;2.00;;;;;;;18.59;53.69;99482.03;5113286;28;20766;-73
2023/03/21 01:55:52;;;;;;;3.75;2.08;;;;;;;18.56;53.55;99470.75;5113409;28;20035;-72
2023/03/21 01:58:18;;;;;;;4.30;2.05;;;;;;;18.51;53.95;99471.84;5072299;28;20024;-73
2023/03/21 02:00:46;;;;;;;3.67;1.90;;;;;;;18.51;53.77;99461.25;5072605;28;20115;-73
2023/03/21 02:03:15;;;;;;;3.58;2.10;;;;;;;18.49;53.93;99457.00;5072623;28;20092;-73
2023/03/21 02:05:48;;;;;;;3.03;1.80;;;;;;;18.47;53.68;99459.72;5072547;28;20039;-73
2023/03/21 02:08:14;;;;;;;3.22;1.95;;;;;;;18.45;54.01;99453.66;5072577;28;20028;-73
2023/03/21 02:10:42;;;;;;;3.83;2.00;;;;;;;18.43;53.79;99447.59;5077635;28;20465;-73
2023/03/21 02:13:10;;;;;;;3.70;1.95;;;;;;;18.41;54.00;99454.75;5111366;28;20027;-72
2023/03/21 02:15:46;;;;;;;3.53;2.17;;;;;;;18.40;53.66;99447.75;5113028;28;20364;-73
2023/03/21 02:18:23;;;;;;;4.05;2.25;;;;;;;18.41;53.67;99449.47;5113157;28;20495;-73
2023/03/21 02:21:44;;;;;;;3.63;2.08;;;;;;;18.38;53.72;99449.63;5112979;28;20054;-73
2023/03/21 02:24:18;;;;;;;4.22;2.15;;;;;;;18.36;53.74;99443.56;5049597;28;20064;-74
2023/03/21 02:27:05;;;;;;;4.18;2.25;;;;;;;18.34;53.69;99442.75;5049605;28;20184;-73
2023/03/21 02:29:58;;;;;;;3.95;2.20;;;;;;;18.34;53.91;99442.75;5049844;28;20493;-73
2023/03/21 02:32:46;;;;;;;3.78;2.20;;;;;;;18.32;53.59;99439.34;5042764;28;20049;-73
2023/03/21 02:35:32;;;;;;;3.22;1.98;;;;;;;18.32;53.59;99452.56;5029583;28;20112;-72
2023/03/21 02:38:03;;;;;;;3.45;1.98;;;;;;;18.31;53.54;99442.94;5029645;28;20068;-73
2023/03/21 02:40:39;;;;;;;3.50;2.20;;;;;;;18.30;53.78;99449.16;5029748;28;20036;-73
2023/03/21 02:43:36;;;;;;;4.63;2.20;;;;;;;18.27;53.79;99447.53;5029455;28;20608;-73
2023/03/21 02:46:16;;;;;;;3.35;2.03;;;;;;;18.30;53.84;99443.88;5029830;28;20068;-73
2023/03/21 02:48:52;;;;;;;3.00;1.55;;;;;;;18.26;53.85;99440.53;5029685;28;20489;-73
2023/03/21 02:51:22;;;;;;;5.05;2.65;;;;;;;18.25;53.70;99438.78;5029623;28;20092;-73
2023/03/21 02:53:53;;;;;;;5.05;2.22;;;;;;;18.23;53.54;99436.25;5029521;28;20025;-74
2023/03/21 02:56:19;;;;;;;3.92;2.10;;;;;;;18.23;53.61;99441.53;5029331;28;20147;-73
2023/03/21 02:58:45;;;;;;;3.80;2.00;;;;;;;18.22;53.62;99439.81;5047365;28;20741;-73
2023/03/21 03:01:11;;;;;;;4.00;1.88;;;;;;;18.20;53.81;99431.13;5062273;28;20075;-73
2023/03/21 03:03:38;;;;;;;4.45;2.40;;;;;;;18.21;53.60;99431.97;5075817;28;20051;-72
2023/03/21 03:06:15;;;;;;;4.72;1.90;;;;;;;18.21;53.91;99432.81;5074789;28;20029;-73
2023/03/21 03:09:05;;;;;;;4.07;2.28;;;;;;;18.20;53.47;99436.41;5075882;28;20032;-73
2023/03/21 03:11:35;;;;;;;4.45;2.30;;;;;;;18.18;53.80;99438.28;5095131;28;20092;-73
2023/03/21 03:14:24;;;;;;;3.30;1.98;;;;;;;18.17;53.71;99439.22;5115258;28;20023;-72
2023/03/21 03:16:52;;;;;;;3.90;1.80;;;;;;;18.17;53.58;99440.97;5116309;28;20035;-73
2023/03/21 03:19:31;;;;;;;3.35;1.95;;;;;;;18.15;53.81;99446.31;5114922;28;20027;-72
2023/03/21 03:22:03;;;;;;;3.28;2.00;;;;;;;18.16;53.84;99440.09;5116128;28;20548;-73
2023/03/21 03:24:56;;;;;;;3.53;2.00;;;;;;;18.15;53.96;99433.13;5116350;28;20042;-73
2023/03/21 03:27:28;;;;;;;2.95;1.75;;;;;;;18.12;53.84;99435.94;5116160;28;20483;-73
2023/03/21 03:29:58;;;;;;;3.70;2.05;;;;;;;18.12;53.57;99428.00;5116091;28;20026;-73
2023/03/21 03:32:32;;;;;;;3.17;1.70;;;;;;;18.12;53.69;99435.94;5116299;28;20092;-73
2023/03/21 03:34:58;;;;;;;3.95;1.77;;;;;;;18.10;53.58;99443.91;5116018;28;20084;-73
2023/03/21 03:37:28;;;;;;;3.90;2.38;;;;;;;18.10;53.78;99440.41;5116051;28;20467;-73
2023/03/21 03:40:10;;;;;;;3.63;2.30;;;;;;;18.09;53.54;99441.34;5115453;28;20020;-73
2023/03/21 03:42:40;;;;;;;3.90;2.05;;;;;;;18.08;53.72;99439.66;5115948;28;20026;-73
2023/03/21 03:45:07;;;;;;;3.45;2.25;;;;;;;18.08;53.86;99437.88;5115693;28;20027;-73
2023/03/21 03:47:41;;;;;;;3.40;1.83;;;;;;;18.09;53.78;99444.00;5115783;28;20035;-73
2023/03/21 03:50:20;;;;;;;3.80;1.88;;;;;;;18.09;53.48;99439.56;5115552;28;20028;-72
2023/03/21 03:52:54;;;;;;;4.55;2.33;;;;;;;18.10;53.53;99450.97;5115813;28;20028;-72
2023/03/21 03:55:21;;;;;;;2.80;1.80;;;;;;;18.10;53.43;99448.34;5115417;28;20554;-73
2023/03/21 03:57:47;;;;;;;4.10;2.10;;;;;;;18.10;53.81;99456.25;5099408;28;20527;-73
2023/03/21 04:00:14;;;;;;;3.85;1.98;;;;;;;18.07;53.94;99451.16;5095373;28;20052;-73
2023/03/21 04:02:40;;;;;;;3.58;2.05;;;;;;;18.05;53.71;99447.66;5095032;28;20085;-73
2023/03/21 04:05:06;;;;;;;3.53;2.10;;;;;;;18.02;53.60;99447.84;5095120;28;20054;-73
2023/03/21 04:07:32;;;;;;;3.47;1.70;;;;;;;18.01;53.67;99454.88;5094898;28;20028;-72
2023/03/21 04:09:57;;;;;;;4.00;2.13;;;;;;;18.00;53.72;99455.00;5094691;28;20070;-73
2023/03/21 04:12:23;;;;;;;3.08;1.75;;;;;;;18.00;53.67;99460.25;5111272;28;20135;-73
2023/03/21 04:14:50;;;;;;;3.90;1.83;;;;;;;18.00;53.72;99460.25;5115221;28;20106;-73
2023/03/21 04:17:17;;;;;;;3.22;1.80;;;;;;;17.95;53.58;99463.09;5115541;28;20034;-72
2023/03/21 04:19:44;;;;;;;3.40;2.00;;;;;;;17.96;53.47;99464.81;5115296;28;20047;-73
2023/03/21 04:22:11;;;;;;;4.30;2.00;;;;;;;17.95;53.86;99465.75;5115302;28;20024;-72
2023/03/21 04:24:37;;;;;;;3.58;2.03;;;;;;;17.93;53.93;99460.53;5114900;28;20098;-73
2023/03/21 04:27:04;;;;;;;3.67;2.00;;;;;;;17.91;53.82;99467.69;5114849;28;20546;-72
2023/03/21 04:29:30;;;;;;;3.65;2.05;;;;;;;17.91;53.82;99472.13;5115255;28;20016;-73
2023/03/21 04:31:55;;;;;;;3.53;1.75;;;;;;;17.93;53.84;99471.09;5115185;28;20424;-73
2023/03/21 04:34:22;;;;;;;3.85;2.03;;;;;;;17.91;53.90;99483.53;5114962;28;20028;-72
2023/03/21 04:36:52;;;;;;;4.35;2.10;;;;;;;17.91;53.79;99475.59;5114785;28;20032;-73
2023/03/21 04:39:18;;;;;;;3.45;1.88;;;;;;;17.89;53.56;99480.13;5114664;28;20051;-72
2023/03/21 04:41:45;;;;;;;3.45;1.70;;;;;;;17.87;53.78;99487.22;5114796;28;20055;-73
2023/03/21 04:44:12;;;;;;;3.42;2.10;;;;;;;17.87;53.50;99481.94;5114782;28;20035;-72
2023/03/21 04:46:38;;;;;;;3.30;2.00;;;;;;;17.88;53.67;99488.09;5114642;28;20406;-73
2023/03/21 04:49:05;;;;;;;2.67;1.63;;;;;;;17.87;53.43;99489.88;5114728;28;20023;-73
2023/03/21 04:51:31;;;;;;;3.40;1.70;;;;;;;17.87;53.65;99489.88;5114515;28;20048;-73
2023/03/21 04:53:57;;;;;;;3.50;1.90;;;;;;;17.85;53.51;99483.81;5114251;27;20027;-73
2023/03/21 04:56:31;;;;;;;3.03;2.00;;;;;;;17.84;53.60;99471.56;5110329;28;20025;-72
2023/03/21 04:59:02;;;;;;;2.60;1.50;;;;;;;17.84;53.51;99472.38;5094233;28;20024;-73
2023/03/21 05:01:30;;;;;;;3.22;1.80;;;;;;;17.82;53.71;99463.69;5094183;28;20089;-72
2023/03/21 05:04:00;;;;;;;3.42;1.90;;;;;;;17.81;53.38;99471.69;5093952;28;20039;-73
2023/03/21 05:06:26;;;;;;;4.63;2.22;;;;;;;17.79;53.65;99463.88;5093417;28;20048;-73
2023/03/21 05:08:55;;;;;;;3.58;1.80;;;;;;;17.79;53.56;99469.13;5093834;28;20020;-72
2023/03/21 05:11:21;;;;;;;3.70;2.00;;;;;;;17.77;53.29;99470.13;5102221;28;20024;-73
2023/03/21 05:13:46;;;;;;;3.50;1.98;;;;;;;17.77;53.58;99460.41;5114213;28;20391;-72
2023/03/21 05:16:12;;;;;;;2.88;1.88;;;;;;;17.76;53.68;99471.03;5114343;28;20630;-73
2023/03/21 05:18:37;;;;;;;4.88;2.63;;;;;;;17.75;53.55;99477.25;5113940;28;20031;-73
2023/03/21 05:21:06;;;;;;;3.67;1.83;;;;;;;17.74;53.50;99486.09;5113727;28;20030;-73
2023/03/21 05:23:37;;;;;;;3.90;2.35;;;;;;;17.74;53.39;99486.97;5114006;28;20020;-73
2023/03/21 05:26:06;;;;;;;4.00;2.00;;;;;;;17.73;53.40;99482.63;5113977;27;20024;-73
2023/03/21 05:28:35;;;;;;;3.58;1.77;;;;;;;17.73;53.60;99484.41;5113854;28;20015;-73
2023/03/21 05:31:02;;;;;;;3.78;1.80;;;;;;;17.71;53.53;99498.53;5114015;28;20035;-73
2023/03/21 05:33:27;;;;;;;4.38;2.38;;;;;;;17.73;53.52;99500.22;5113759;28;20026;-73
2023/03/21 05:35:53;;;;;;;3.45;1.98;;;;;;;17.71;53.62;99497.66;5113358;28;20454;-73
2023/03/21 05:38:18;;;;;;;2.90;1.77;;;;;;;17.71;53.46;99497.66;5113692;28;20031;-73
2023/03/21 05:40:48;;;;;;;5.03;2.13;;;;;;;17.71;53.68;99503.81;5113631;28;20030;-72
2023/03/21 05:43:13;;;;;;;3.45;1.88;;;;;;;17.70;53.78;99496.81;5113762;28;20020;-72
2023/03/21 05:45:39;;;;;;;2.97;1.92;;;;;;;17.70;53.52;99507.38;5113516;27;20095;-72
2023/03/21 05:48:04;;;;;;;3.75;2.08;;;;;;;17.70;53.31;99515.28;5113599;28;20027;-73
2023/03/21 05:50:30;;;;;;;3.50;1.92;;;;;;;17.71;53.30;99511.72;5112928;28;20092;-73
2023/03/21 05:52:55;;;;;;;3.13;2.03;;;;;;;17.69;53.49;99516.19;5113599;28;20073;-73
2023/03/21 05:55:21;;;;;;;3.03;1.92;;;;;;;17.67;53.58;99523.34;5113270;28;20019;-72
2023/03/21 05:57:46;;;;;;;4.22;2.30;;;;;;;17.66;53.39;99532.19;5097203;28;20028;-71
2023/03/21 06:00:12;;;;;;;3.95;1.98;;;;;;;17.66;53.78;99537.47;5092868;28;20024;-71
2023/03/21 06:02:38;;;;;;;3.95;1.92;;;;;;;17.64;53.23;99539.31;5092907;28;20056;-72
2023/03/21 06:05:05;;;;;;;3.65;2.00;;;;;;;17.62;53.35;99530.59;5092640;28;20066;-72
2023/03/21 06:07:31;;;;;;;3.63;1.90;;;;;;;17.59;53.46;99530.75;5092723;28;20024;-72
2023/03/21 06:09:56;;;;;;;4.07;2.35;;;;;;;17.60;53.36;99537.75;5092787;28;20028;-72
2023/03/21 06:12:22;;;;;;;4.28;2.03;;;;;;;17.58;53.38;99550.16;5109757;28;20092;-72
2023/03/21 06:14:47;;;;;;;4.40;2.47;;;;;;;17.58;53.40;99555.44;5113062;28;20047;-72
2023/03/21 06:17:13;;;;;;;3.65;2.38;;;;;;;17.56;53.44;99562.56;5113155;28;20065;-72
2023/03/21 06:19:38;;;;;;;3.67;2.00;;;;;;;17.55;53.31;99560.84;5112717;28;20451;-73
2023/03/21 06:22:03;;;;;;;3.72;2.17;;;;;;;17.55;53.61;99558.19;5112949;28;20081;-72
2023/03/21 06:24:29;;;;;;;3.33;1.85;;;;;;;17.54;53.74;99553.84;5112863;28;20024;-65
2023/03/21 06:26:54;;;;;;;4.50;2.28;;;;;;;17.57;53.45;99569.53;5112802;28;20106;-77
2023/03/21 06:29:20;;;;;;;4.35;2.13;;;;;;;17.57;53.63;99580.09;5113009;28;20087;-68
2023/03/21 06:31:45;;;;;;;4.80;2.10;;;;;;;17.60;53.49;99579.97;5112523;28;20463;-69
2023/03/21 06:34:11;;;;;;;4.13;2.25;;;;;;;17.58;53.64;99572.13;5112401;28;20030;-67
2023/03/21 06:36:36;;;;;;;3.90;2.00;;;;;;;17.56;53.65;99567.81;5112280;28;20080;-68
2023/03/21 06:39:03;;;;;;;3.83;2.00;;;;;;;17.54;53.87;99570.53;5112865;28;20020;-67
2023/03/21 06:41:29;;;;;;;3.70;2.13;;;;;;;17.54;53.87;99585.53;5112862;28;20028;-68
2023/03/21 06:43:54;;;;;;;3.67;1.90;;;;;;;17.53;53.84;99591.72;5112754;28;20042;-68
2023/03/21 06:46:20;;;;;;;4.15;1.90;;;;;;;17.53;53.95;99594.38;5112413;28;20105;-69
2023/03/21 06:48:45;;;;;;;4.50;2.22;;;;;;;17.53;53.50;99604.91;5112323;28;20084;-70
2023/03/21 06:51:13;;;;;;;3.70;1.90;;;;;;;17.53;53.70;99599.63;5112505;28;20048;-68
2023/03/21 06:53:40;;;;;;;7.10;2.50;;;;;;;17.51;53.55;99604.09;5112574;28;20034;-69
2023/03/21 06:56:07;;;;;;;3.47;2.10;;;;;;;17.49;54.04;99598.94;5110695;28;20041;-69
2023/03/21 06:58:32;;;;;;;4.40;2.42;;;;;;;17.47;53.97;99599.91;5092123;28;20111;-69
2023/03/21 07:00:59;;;;;;;4.13;2.15;;;;;;;17.50;53.74;99591.84;5092319;28;20115;-68
2023/03/21 07:03:24;;;;;;;4.78;2.40;;;;;;;17.49;53.52;99592.78;5091678;28;20102;-67
2023/03/21 07:05:50;;;;;;;4.50;2.40;;;;;;;17.49;53.82;99590.13;5091751;28;20032;-69
2023/03/21 07:08:16;;;;;;;4.90;2.33;;;;;;;17.48;53.95;99585.78;5092147;28;20051;-68
2023/03/21 07:10:43;;;;;;;6.03;2.72;;;;;;;17.47;53.79;99573.53;5091972;28;20031;-69
2023/03/21 07:13:08;;;;;;;6.43;2.50;;;;;;;17.45;53.87;99571.78;5091925;28;20028;-67
2023/03/21 07:15:36;;;;;;;4.30;2.40;;;;;;;17.44;53.77;99580.63;5092126;28;20090;-68
2023/03/21 07:18:03;;;;;;;4.20;2.42;;;;;;;17.45;53.87;99579.72;5091627;28;20024;-69
2023/03/21 07:20:28;;;;;;;5.00;2.55;;;;;;;17.43;53.99;99576.28;5091916;28;20655;-68
2023/03/21 07:22:54;;;;;;;5.18;2.45;;;;;;;17.45;53.95;99577.06;5092079;28;20056;-69
2023/03/21 07:25:19;;;;;;;4.63;2.20;;;;;;;17.44;53.81;99572.72;5091805;28;20027;-68
2023/03/21 07:27:45;;;;;;;4.20;2.58;;;;;;;17.44;53.92;99574.53;5091852;28;20056;-69
2023/03/21 07:30:11;;;;;;;5.03;2.55;;;;;;;17.44;53.60;99570.09;5091938;28;20089;-69
2023/03/21 07:32:38;;;;;;;5.25;2.53;;;;;;;17.45;53.61;99577.06;5091553;28;20024;-69
2023/03/21 07:35:05;;;;;;;5.20;2.70;;;;;;;17.44;53.55;99580.63;5091556;28;20404;-69
2023/03/21 07:37:30;;;;;;;4.50;2.35;;;;;;;17.43;53.71;99578.94;5091676;28;20017;-68
2023/03/21 07:39:56;;;;;;;5.00;2.90;;;;;;;17.43;53.99;99584.19;5091839;28;20102;-70
2023/03/21 07:42:21;;;;;;;6.68;2.50;;;;;;;17.43;53.91;99576.28;5091714;28;20102;-69
2023/03/21 07:44:47;;;;;;;5.78;2.60;;;;;;;17.44;53.75;99575.38;5091429;28;20103;-67
2023/03/21 07:47:12;;;;;;;4.63;2.60;;;;;;;17.44;53.88;99578.00;5091763;28;20105;-68
2023/03/21 07:49:38;;;;;;;5.95;3.25;;;;;;;17.44;53.81;99585.06;5095512;28;20145;-69
2023/03/21 07:52:05;;;;;;;6.30;2.80;;;;;;;17.47;53.92;99590.19;5095082;28;20532;-69
2023/03/21 07:54:31;;;;;;;4.47;2.40;;;;;;;17.45;53.69;99600.81;5095383;28;20065;-69
2023/03/21 07:56:56;;;;;;;4.63;2.63;;;;;;;17.44;53.73;99596.47;5095332;28;20107;-68
2023/03/21 07:59:22;;;;;;;3.92;2.60;;;;;;;17.45;54.18;99599.97;5095328;28;20499;-67
2023/03/21 08:01:48;;;;;;;4.45;2.50;;;;;;;17.44;53.90;99614.94;5095008;28;20139;-68
2023/03/21 08:04:13;;;;;;;5.00;2.80;;;;;;;17.48;53.92;99612.19;5095078;28;20078;-68
2023/03/21 08:06:39;;;;;;;5.47;2.80;;;;;;;17.48;53.95;99617.44;5095069;28;20036;-69
2023/03/21 08:09:05;;;;;;;4.93;2.53;;;;;;;17.48;53.94;99617.44;5095166;28;20024;-68
2023/03/21 08:11:31;;;;;;;5.13;2.53;;;;;;;17.50;53.91;99631.41;5095048;28;20035;-69
2023/03/21 08:13:58;;;;;;;4.22;2.17;;;;;;;17.50;53.89;99640.22;5094984;28;20032;-69
2023/03/21 08:16:23;;;;;;;4.20;2.38;;;;;;;17.50;54.07;99647.25;5094805;28;20038;-67
2023/03/21 08:18:49;;;;;;;5.57;2.65;;;;;;;17.52;53.91;99645.38;5095163;28;20020;-68
2023/03/21 08:21:14;;;;;;;4.55;2.50;;;;;;;17.52;53.71;99642.75;5094992;28;20020;-67
2023/03/21 08:23:40;;;;;;;4.68;2.35;;;;;;;17.51;53.68;99659.50;5094798;28;20502;-67
2023/03/21 08:26:06;;;;;;;3.85;2.28;;;;;;;17.53;53.92;99670.88;5094821;28;20448;-68
2023/03/21 08:28:32;;;;;;;5.28;2.40;;;;;;;17.52;53.70;99669.13;5094850;28;20730;-69
2023/03/21 08:30:58;;;;;;;6.22;3.10;;;;;;;17.53;53.85;99669.09;5094448;28;20051;-69
2023/03/21 08:33:23;;;;;;;5.57;2.72;;;;;;;17.53;53.80;99657.69;5094710;28;20480;-69
2023/03/21 08:35:49;;;;;;;4.20;2.28;;;;;;;17.55;53.77;99671.66;5094465;28;20032;-69
2023/03/21 08:38:14;;;;;;;4.90;2.33;;;;;;;17.51;53.87;99681.50;5094752;28;20074;-68
2023/03/21 08:40:40;;;;;;;4.47;2.50;;;;;;;17.53;53.56;99681.44;5094478;28;20026;-69
2023/03/21 08:43:06;;;;;;;4.40;2.45;;;;;;;17.53;54.02;99682.28;5094604;28;20034;-67
2023/03/21 08:45:31;;;;;;;5.78;3.25;;;;;;;17.53;53.95;99679.63;5094208;28;20028;-69
2023/03/21 08:47:57;;;;;;;6.32;2.40;;;;;;;17.54;53.71;99676.06;5094267;28;20465;-67
2023/03/21 08:50:26;;;;;;;5.72;2.60;;;;;;;17.57;53.58;99683.00;5094089;28;20044;-67
2023/03/21 08:52:52;;;;;;;5.07;3.10;;;;;;;17.57;53.72;99675.06;5094396;28;20054;-67
2023/03/21 08:55:18;;;;;;;3.65;1.90;;;;;;;17.60;53.57;99676.72;5094092;28;20461;-67
2023/03/21 08:57:44;;;;;;;3.78;2.40;;;;;;;17.58;53.95;99672.38;5093961;28;20035;-69
2023/03/21 09:00:16;;;;;;;4.05;2.15;;;;;;;17.58;53.94;99667.09;5093655;28;20415;-68
2023/03/21 09:02:45;;;;;;;4.57;2.28;;;;;;;17.58;53.73;99666.25;5094234;28;20433;-69
2023/03/21 09:05:11;;;;;;;5.13;2.17;;;;;;;17.60;53.76;99679.38;5093785;28;20111;-68
2023/03/21 09:07:38;;;;;;;5.55;2.55;;;;;;;17.61;53.43;99676.66;5094080;28;20116;-69
2023/03/21 09:10:05;;;;;;;6.05;2.90;;;;;;;17.62;53.50;99674.91;5093972;28;20032;-69
2023/03/21 09:12:31;;;;;;;3.75;2.17;;;;;;;17.63;53.56;99673.97;5093727;28;20031;-68
2023/03/21 09:14:57;;;;;;;4.40;2.13;;;;;;;17.64;53.35;99676.56;5093713;28;20149;-67
2023/03/21 09:17:22;;;;;;;4.93;2.35;;;;;;;17.65;53.51;99672.97;5093744;28;20103;-68
2023/03/21 09:19:49;;;;;;;5.15;2.47;;;;;;;17.66;53.63;99674.69;5093784;28;20020;-68
2023/03/21 09:22:16;;;;;;;4.00;2.15;;;;;;;17.66;53.40;99674.69;5093852;28;20369;-68
2023/03/21 09:24:46;;;;;;;5.25;2.63;;;;;;;17.66;53.75;99671.19;5093459;28;20020;-68
2023/03/21 09:27:12;;;;;;;4.30;2.17;;;;;;;17.67;53.29;99673.75;5093544;28;20055;-68
2023/03/21 09:29:39;;;;;;;4.50;2.42;;;;;;;17.67;53.53;99671.13;5093298;28;20034;-68
2023/03/21 09:32:05;;;;;;;5.57;2.40;;;;;;;17.71;53.67;99672.72;5093492;28;20388;-67
2023/03/21 09:34:31;;;;;;;5.18;2.75;;;;;;;17.73;53.36;99675.28;5093394;28;20110;-68
2023/03/21 09:36:56;;;;;;;5.55;2.92;;;;;;;17.74;53.32;99676.13;5093586;28;20028;-68
2023/03/21 09:39:23;;;;;;;5.00;2.65;;;;;;;17.74;53.22;99676.13;5093408;28;20395;-68
2023/03/21 09:42:08;;;;;;;4.45;2.63;;;;;;;17.75;53.18;99683.13;5093341;28;20056;-68
2023/03/21 09:44:57;;;;;;;5.93;2.43;;;;;;;17.75;53.54;99673.44;5092867;28;20476;-68
2023/03/21 09:47:31;;;;;;;5.72;2.53;;;;;;;17.76;53.41;99674.28;5050552;28;20787;-69
2023/03/21 09:50:07;;;;;;;4.60;2.38;;;;;;;17.76;53.26;99674.28;5050331;28;20475;-69
2023/03/21 09:52:53;;;;;;;4.50;2.40;;;;;;;17.78;53.13;99668.00;5050694;28;20426;-68
2023/03/21 09:55:29;;;;;;;4.65;2.45;;;;;;;17.77;53.12;99670.72;5050574;28;20371;-68
2023/03/21 09:58:29;;;;;;;5.00;2.35;;;;;;;17.80;53.44;99671.44;5050054;28;20043;-69
2023/03/21 10:01:04;;;;;;;4.38;2.45;;;;;;;17.82;53.30;99671.38;5050533;28;20044;-67
2023/03/21 10:03:33;;;;;;;5.28;2.75;;;;;;;17.83;53.08;99670.47;5050505;28;20397;-69
2023/03/21 10:06:07;;;;;;;5.63;3.05;;;;;;;17.83;53.44;99665.19;5050221;28;20043;-67
2023/03/21 10:08:36;;;;;;;6.43;2.80;;;;;;;17.86;53.40;99665.03;5050262;28;20025;-68
2023/03/21 10:11:10;;;;;;;6.57;2.95;;;;;;;17.86;52.98;99657.09;5049313;28;20048;-67
2023/03/21 10:13:42;;;;;;;5.60;2.30;;;;;;;17.87;53.38;99655.34;5050175;28;20025;-68
2023/03/21 10:16:16;;;;;;;6.93;2.88;;;;;;;17.88;53.08;99647.34;5050353;28;20419;-68
2023/03/21 10:18:43;;;;;;;5.07;3.05;;;;;;;17.89;53.01;99643.78;5050329;28;20068;-69
2023/03/21 10:21:20;;;;;;;5.57;2.67;;;;;;;17.90;53.27;99634.94;5050310;28;20122;-69
2023/03/21 10:23:45;;;;;;;6.10;2.65;;;;;;;17.94;52.98;99636.53;5054626;28;20401;-68
2023/03/21 10:26:11;;;;;;;5.15;3.03;;;;;;;17.93;53.28;99629.50;5072127;28;20039;-69
2023/03/21 10:28:40;;;;;;;4.55;2.63;;;;;;;17.94;52.99;99631.25;5072383;28;20098;-68
2023/03/21 10:31:10;;;;;;;4.45;2.63;;;;;;;17.96;53.18;99634.66;5072186;28;20032;-68
2023/03/21 10:33:41;;;;;;;4.57;2.67;;;;;;;17.97;52.82;99627.59;5072312;28;20032;-68
2023/03/21 10:36:09;;;;;;;5.40;2.83;;;;;;;17.97;53.22;99631.06;5072243;28;20032;-69
2023/03/21 10:38:43;;;;;;;7.20;3.00;;;;;;;17.97;52.86;99628.44;5072181;28;20149;-69
2023/03/21 10:41:10;;;;;;;4.57;2.60;;;;;;;18.00;52.85;99632.72;5071819;28;20029;-68
2023/03/21 10:43:39;;;;;;;5.00;2.50;;;;;;;18.00;52.79;99629.25;5072161;28;20032;-68
2023/03/21 10:46:26;;;;;;;4.88;2.70;;;;;;;18.02;53.12;99630.03;5072090;28;20032;-68
2023/03/21 10:48:53;;;;;;;4.28;2.42;;;;;;;18.04;52.96;99634.31;5071988;28;20023;-68
2023/03/21 10:51:21;;;;;;;5.97;3.08;;;;;;;18.04;53.24;99641.34;5071554;28;20049;-68
2023/03/21 10:54:04;;;;;;;5.82;2.63;;;;;;;18.03;52.93;99642.28;5071989;28;20036;-67
2023/03/21 10:56:34;;;;;;;4.35;2.67;;;;;;;18.07;52.90;99646.53;5076468;28;20081;-67
2023/03/21 10:59:01;;;;;;;5.35;2.58;;;;;;;18.07;52.77;99644.75;5090687;28;20541;-68
2023/03/21 11:01:38;;;;;;;4.75;2.35;;;;;;;18.08;52.78;99648.25;5092210;28;20039;-68
2023/03/21 11:04:26;;;;;;;4.63;2.33;;;;;;;18.07;52.82;99646.53;5092165;28;20036;-68
2023/03/21 11:06:58;;;;;;;5.45;2.42;;;;;;;18.12;52.78;99649.84;5091906;28;20514;-67
2023/03/21 11:09:26;;;;;;;3.63;2.30;;;;;;;18.11;52.85;99653.38;5091725;28;20095;-68
2023/03/21 11:12:04;;;;;;;4.60;2.45;;;;;;;18.14;53.11;99647.09;5091952;28;20028;-67
2023/03/21 11:14:39;;;;;;;5.40;2.28;;;;;;;18.13;52.95;99662.09;5091900;28;20083;-69
2023/03/21 11:17:17;;;;;;;4.13;2.03;;;;;;;18.13;52.96;99656.81;5091874;28;20411;-68
2023/03/21 11:19:59;;;;;;;3.92;2.40;;;;;;;18.15;52.73;99649.69;5092006;28;20051;-67
2023/03/21 11:22:35;;;;;;;4.43;2.35;;;;;;;18.15;52.97;99644.41;5094502;28;20036;-67
2023/03/21 11:25:05;;;;;;;3.50;2.00;;;;;;;18.16;52.89;99646.09;5095670;28;20024;-67
2023/03/21 11:27:31;;;;;;;4.95;2.45;;;;;;;18.17;52.95;99641.69;5095928;28;20443;-69
2023/03/21 11:30:00;;;;;;;4.20;2.03;;;;;;;18.18;53.14;99649.56;5096111;28;20051;-68
2023/03/21 11:32:34;;;;;;;4.43;2.33;;;;;;;18.19;53.03;99643.34;5095887;28;20115;-68
2023/03/21 11:35:14;;;;;;;3.78;2.00;;;;;;;18.21;52.96;99638.81;5095765;28;20031;-68
2023/03/21 11:37:46;;;;;;;4.00;2.22;;;;;;;18.22;52.89;99635.25;5095682;28;20542;-68
2023/03/21 11:40:20;;;;;;;4.53;2.30;;;;;;;18.23;52.97;99631.72;5095498;28;20024;-67
2023/03/21 11:42:50;;;;;;;4.90;2.08;;;;;;;18.25;53.19;99634.25;5094217;28;20081;-68